sensor_id;sensor_type;location;lat;lon;timestamp;temperature;humidity
4811;DHT22;2419;51.276;6.472;2023-04-25T00:00:25;6.50;99.90
4811;DHT22;2419;51.276;6.472;2023-04-25T00:02:53;6.50;99.90
4811;DHT22;2419;51.276;6.472;2023-04-25T00:05:25;6.50;99.90
4811;DHT22;2419;51.276;6.472;2023-04-25T00:07:53;6.60;99.90
4811;DHT22;2419;51.276;6.472;2023-04-25T00:10:22;6.60;99.90
4811;DHT22;2419;51.276;6.472;2023-04-25T00:12:49;6.70;99.90
4811;DHT22;2419;51.276;6.472;2023-04-25T00:15:18;6.80;99.90
4811;DHT22;2419;51.276;6.472;2023-04-25T00:17:46;6.80;99.90
4811;DHT22;2419;51.276;6.472;2023-04-25T00:20:15;6.80;99.90
4811;DHT22;2419;51.276;6.472;2023-04-25T00:22:44;6.90;99.90
4811;DHT22;2419;51.276;6.472;2023-04-25T00:25:12;6.90;99.90
4811;DHT22;2419;51.276;6.472;2023-04-25T00:27:40;6.90;99.90
4811;DHT22;2419;51.276;6.472;2023-04-25T00:30:09;6.90;99.90
4811;DHT22;2419;51.276;6.472;2023-04-25T00:32:37;6.90;99.90
4811;DHT22;2419;51.276;6.472;2023-04-25T00:35:06;6.90;99.90
4811;DHT22;2419;51.276;6.472;2023-04-25T00:37:34;6.90;99.90
4811;DHT22;2419;51.276;6.472;2023-04-25T00:40:05;6.90;99.90
4811;DHT22;2419;51.276;6.472;2023-04-25T00:42:35;6.80;99.90
4811;DHT22;2419;51.276;6.472;2023-04-25T00:45:06;6.90;99.90
4811;DHT22;2419;51.276;6.472;2023-04-25T00:47:36;6.80;99.90
4811;DHT22;2419;51.276;6.472;2023-04-25T00:50:05;6.90;99.90
4811;DHT22;2419;51.276;6.472;2023-04-25T00:52:33;6.90;99.90
4811;DHT22;2419;51.276;6.472;2023-04-25T00:55:03;6.90;99.90
4811;DHT22;2419;51.276;6.472;2023-04-25T00:57:32;6.90;99.90
4811;DHT22;2419;51.276;6.472;2023-04-25T01:00:00;6.90;99.90
4811;DHT22;2419;51.276;6.472;2023-04-25T01:02:29;6.90;99.90
4811;DHT22;2419;51.276;6.472;2023-04-25T01:04:58;6.90;99.90
4811;DHT22;2419;51.276;6.472;2023-04-25T01:07:26;7.00;99.90
4811;DHT22;2419;51.276;6.472;2023-04-25T01:09:54;7.00;99.90
4811;DHT22;2419;51.276;6.472;2023-04-25T01:12:23;7.00;99.90
4811;DHT22;2419;51.276;6.472;2023-04-25T01:14:52;7.00;99.90
4811;DHT22;2419;51.276;6.472;2023-04-25T01:17:20;7.00;99.90
4811;DHT22;2419;51.276;6.472;2023-04-25T01:19:49;7.00;99.90
4811;DHT22;2419;51.276;6.472;2023-04-25T01:22:21;7.00;99.90
4811;DHT22;2419;51.276;6.472;2023-04-25T01:24:50;7.00;99.90
4811;DHT22;2419;51.276;6.472;2023-04-25T01:27:18;7.10;99.90
4811;DHT22;2419;51.276;6.472;2023-04-25T01:29:47;7.10;99.90
4811;DHT22;2419;51.276;6.472;2023-04-25T01:32:15;7.20;99.90
4811;DHT22;2419;51.276;6.472;2023-04-25T01:34:43;7.10;99.90
4811;DHT22;2419;51.276;6.472;2023-04-25T01:37:12;7.20;99.90
4811;DHT22;2419;51.276;6.472;2023-04-25T01:39:41;7.20;99.90
4811;DHT22;2419;51.276;6.472;2023-04-25T01:42:09;7.20;99.90
4811;DHT22;2419;51.276;6.472;2023-04-25T01:44:37;7.20;99.90
4811;DHT22;2419;51.276;6.472;2023-04-25T01:47:05;7.30;99.90
4811;DHT22;2419;51.276;6.472;2023-04-25T01:49:33;7.30;99.90
4811;DHT22;2419;51.276;6.472;2023-04-25T01:52:01;7.30;99.90
4811;DHT22;2419;51.276;6.472;2023-04-25T01:54:30;7.30;99.90
4811;DHT22;2419;51.276;6.472;2023-04-25T01:56:59;7.30;99.90
4811;DHT22;2419;51.276;6.472;2023-04-25T01:59:29;7.20;99.90
4811;DHT22;2419;51.276;6.472;2023-04-25T02:02:15;7.20;99.90
4811;DHT22;2419;51.276;6.472;2023-04-25T02:04:46;7.20;99.90
4811;DHT22;2419;51.276;6.472;2023-04-25T02:07:14;7.30;99.90
4811;DHT22;2419;51.276;6.472;2023-04-25T02:09:51;7.20;99.90
4811;DHT22;2419;51.276;6.472;2023-04-25T02:12:23;7.20;99.90
4811;DHT22;2419;51.276;6.472;2023-04-25T02:15:11;7.20;99.90
4811;DHT22;2419;51.276;6.472;2023-04-25T02:17:43;7.20;99.90
4811;DHT22;2419;51.276;6.472;2023-04-25T02:20:12;7.20;99.90
4811;DHT22;2419;51.276;6.472;2023-04-25T02:22:40;7.00;99.90
4811;DHT22;2419;51.276;6.472;2023-04-25T02:25:09;7.00;99.90
4811;DHT22;2419;51.276;6.472;2023-04-25T02:27:39;6.90;99.90
4811;DHT22;2419;51.276;6.472;2023-04-25T02:30:08;6.80;99.90
4811;DHT22;2419;51.276;6.472;2023-04-25T02:32:36;6.70;99.90
4811;DHT22;2419;51.276;6.472;2023-04-25T02:35:05;6.80;99.90
4811;DHT22;2419;51.276;6.472;2023-04-25T02:37:34;6.80;99.90
4811;DHT22;2419;51.276;6.472;2023-04-25T02:40:03;6.80;99.90
4811;DHT22;2419;51.276;6.472;2023-04-25T02:42:31;6.70;99.90
4811;DHT22;2419;51.276;6.472;2023-04-25T02:45:01;6.60;99.90
4811;DHT22;2419;51.276;6.472;2023-04-25T02:47:29;6.60;99.90
4811;DHT22;2419;51.276;6.472;2023-04-25T02:49:58;6.60;99.90
4811;DHT22;2419;51.276;6.472;2023-04-25T02:52:26;6.60;99.90
4811;DHT22;2419;51.276;6.472;2023-04-25T02:55:02;6.60;99.90
4811;DHT22;2419;51.276;6.472;2023-04-25T02:57:31;6.50;99.90
4811;DHT22;2419;51.276;6.472;2023-04-25T03:00:01;6.50;99.90
4811;DHT22;2419;51.276;6.472;2023-04-25T03:02:30;6.60;99.90
4811;DHT22;2419;51.276;6.472;2023-04-25T03:04:58;6.50;99.90
4811;DHT22;2419;51.276;6.472;2023-04-25T03:07:27;6.40;99.90
4811;DHT22;2419;51.276;6.472;2023-04-25T03:09:55;6.40;99.90
4811;DHT22;2419;51.276;6.472;2023-04-25T03:12:24;6.40;99.90
4811;DHT22;2419;51.276;6.472;2023-04-25T03:14:52;6.40;99.90
4811;DHT22;2419;51.276;6.472;2023-04-25T03:17:21;6.40;99.90
4811;DHT22;2419;51.276;6.472;2023-04-25T03:19:49;6.50;99.90
4811;DHT22;2419;51.276;6.472;2023-04-25T03:22:17;6.50;99.90
4811;DHT22;2419;51.276;6.472;2023-04-25T03:24:45;6.50;99.90
4811;DHT22;2419;51.276;6.472;2023-04-25T03:27:13;6.40;99.90
4811;DHT22;2419;51.276;6.472;2023-04-25T03:29:42;6.40;99.90
4811;DHT22;2419;51.276;6.472;2023-04-25T03:32:10;6.40;99.90
4811;DHT22;2419;51.276;6.472;2023-04-25T03:34:39;6.30;99.90
4811;DHT22;2419;51.276;6.472;2023-04-25T03:37:08;6.30;99.90
4811;DHT22;2419;51.276;6.472;2023-04-25T03:39:37;6.30;99.90
4811;DHT22;2419;51.276;6.472;2023-04-25T03:42:06;6.20;99.90
4811;DHT22;2419;51.276;6.472;2023-04-25T03:44:35;6.40;99.90
4811;DHT22;2419;51.276;6.472;2023-04-25T03:47:04;6.30;99.90
4811;DHT22;2419;51.276;6.472;2023-04-25T03:49:34;6.30;99.90
4811;DHT22;2419;51.276;6.472;2023-04-25T03:52:06;6.30;99.90
4811;DHT22;2419;51.276;6.472;2023-04-25T03:54:38;6.20;99.90
4811;DHT22;2419;51.276;6.472;2023-04-25T03:57:09;6.20;99.90
4811;DHT22;2419;51.276;6.472;2023-04-25T03:59:41;6.10;99.90
4811;DHT22;2419;51.276;6.472;2023-04-25T04:02:12;6.00;99.90
4811;DHT22;2419;51.276;6.472;2023-04-25T04:04:40;6.00;99.90
4811;DHT22;2419;51.276;6.472;2023-04-25T04:07:12;6.00;99.90
4811;DHT22;2419;51.276;6.472;2023-04-25T04:09:43;5.90;99.90
4811;DHT22;2419;51.276;6.472;2023-04-25T04:12:21;5.90;99.90
4811;DHT22;2419;51.276;6.472;2023-04-25T04:14:50;5.90;99.90
4811;DHT22;2419;51.276;6.472;2023-04-25T04:17:18;5.80;99.90
4811;DHT22;2419;51.276;6.472;2023-04-25T04:19:46;5.80;99.90
4811;DHT22;2419;51.276;6.472;2023-04-25T04:22:19;5.70;99.90
4811;DHT22;2419;51.276;6.472;2023-04-25T04:24:48;5.70;99.90
4811;DHT22;2419;51.276;6.472;2023-04-25T04:27:22;5.60;99.90
4811;DHT22;2419;51.276;6.472;2023-04-25T04:30:00;5.70;99.90
4811;DHT22;2419;51.276;6.472;2023-04-25T04:32:31;5.70;99.90
4811;DHT22;2419;51.276;6.472;2023-04-25T04:35:03;5.70;99.90
4811;DHT22;2419;51.276;6.472;2023-04-25T04:37:34;5.60;99.90
4811;DHT22;2419;51.276;6.472;2023-04-25T04:40:05;5.70;99.90
4811;DHT22;2419;51.276;6.472;2023-04-25T04:42:49;5.70;99.90
4811;DHT22;2419;51.276;6.472;2023-04-25T04:45:36;5.80;99.90
4811;DHT22;2419;51.276;6.472;2023-04-25T04:48:31;5.90;99.90
4811;DHT22;2419;51.276;6.472;2023-04-25T04:51:19;6.00;99.90
4811;DHT22;2419;51.276;6.472;2023-04-25T04:54:05;6.10;99.90
4811;DHT22;2419;51.276;6.472;2023-04-25T04:56:33;6.30;99.90
4811;DHT22;2419;51.276;6.472;2023-04-25T04:59:17;6.30;99.90
4811;DHT22;2419;51.276;6.472;2023-04-25T05:02:02;6.50;99.90
4811;DHT22;2419;51.276;6.472;2023-04-25T05:04:52;6.70;99.90
4811;DHT22;2419;51.276;6.472;2023-04-25T05:07:56;7.40;99.90
4811;DHT22;2419;51.276;6.472;2023-04-25T05:11:01;8.20;99.90
4811;DHT22;2419;51.276;6.472;2023-04-25T05:13:38;8.60;99.90
4811;DHT22;2419;51.276;6.472;2023-04-25T05:16:31;8.70;99.90
4811;DHT22;2419;51.276;6.472;2023-04-25T05:19:35;8.30;99.90
4811;DHT22;2419;51.276;6.472;2023-04-25T05:22:16;8.30;99.90
4811;DHT22;2419;51.276;6.472;2023-04-25T05:24:54;8.50;99.90
4811;DHT22;2419;51.276;6.472;2023-04-25T05:27:32;8.30;99.90
4811;DHT22;2419;51.276;6.472;2023-04-25T05:30:15;8.00;99.90
4811;DHT22;2419;51.276;6.472;2023-04-25T05:33:06;8.00;99.90
4811;DHT22;2419;51.276;6.472;2023-04-25T05:35:34;7.90;99.90
4811;DHT22;2419;51.276;6.472;2023-04-25T05:38:02;7.90;99.90
4811;DHT22;2419;51.276;6.472;2023-04-25T05:40:48;7.80;99.90
4811;DHT22;2419;51.276;6.472;2023-04-25T05:43:39;8.10;99.90
4811;DHT22;2419;51.276;6.472;2023-04-25T05:46:21;8.10;99.90
4811;DHT22;2419;51.276;6.472;2023-04-25T05:49:11;8.40;99.90
4811;DHT22;2419;51.276;6.472;2023-04-25T05:51:58;8.20;99.90
4811;DHT22;2419;51.276;6.472;2023-04-25T05:54:46;8.40;99.90
4811;DHT22;2419;51.276;6.472;2023-04-25T05:57:20;8.40;99.90
4811;DHT22;2419;51.276;6.472;2023-04-25T05:59:50;8.20;99.90
4811;DHT22;2419;51.276;6.472;2023-04-25T06:02:19;8.50;99.90
4811;DHT22;2419;51.276;6.472;2023-04-25T06:04:49;8.50;99.90
4811;DHT22;2419;51.276;6.472;2023-04-25T06:07:18;9.00;99.90
4811;DHT22;2419;51.276;6.472;2023-04-25T06:09:46;9.30;99.90
4811;DHT22;2419;51.276;6.472;2023-04-25T06:12:14;9.00;99.90
4811;DHT22;2419;51.276;6.472;2023-04-25T06:14:42;8.80;99.90
4811;DHT22;2419;51.276;6.472;2023-04-25T06:17:12;8.80;99.90
4811;DHT22;2419;51.276;6.472;2023-04-25T06:19:40;8.80;99.90
4811;DHT22;2419;51.276;6.472;2023-04-25T06:22:08;8.70;99.90
4811;DHT22;2419;51.276;6.472;2023-04-25T06:24:38;8.60;99.90
4811;DHT22;2419;51.276;6.472;2023-04-25T06:27:06;8.60;99.90
4811;DHT22;2419;51.276;6.472;2023-04-25T06:29:35;8.60;99.90
4811;DHT22;2419;51.276;6.472;2023-04-25T06:32:03;8.90;99.90
4811;DHT22;2419;51.276;6.472;2023-04-25T06:34:33;9.20;99.90
4811;DHT22;2419;51.276;6.472;2023-04-25T06:37:01;9.90;99.90
4811;DHT22;2419;51.276;6.472;2023-04-25T06:39:29;10.30;99.90
4811;DHT22;2419;51.276;6.472;2023-04-25T06:41:57;10.50;99.90
4811;DHT22;2419;51.276;6.472;2023-04-25T06:45:00;10.70;99.90
4811;DHT22;2419;51.276;6.472;2023-04-25T06:47:29;10.40;99.90
4811;DHT22;2419;51.276;6.472;2023-04-25T06:50:00;10.40;99.90
4811;DHT22;2419;51.276;6.472;2023-04-25T06:52:29;10.10;99.90
4811;DHT22;2419;51.276;6.472;2023-04-25T06:54:58;10.30;99.90
4811;DHT22;2419;51.276;6.472;2023-04-25T06:57:56;10.40;99.90
4811;DHT22;2419;51.276;6.472;2023-04-25T07:00:50;10.70;99.90
4811;DHT22;2419;51.276;6.472;2023-04-25T07:03:21;11.00;99.90
4811;DHT22;2419;51.276;6.472;2023-04-25T07:05:53;11.20;99.90
4811;DHT22;2419;51.276;6.472;2023-04-25T07:08:21;11.10;99.90
4811;DHT22;2419;51.276;6.472;2023-04-25T07:10:49;11.70;99.90
4811;DHT22;2419;51.276;6.472;2023-04-25T07:13:17;12.40;99.90
4811;DHT22;2419;51.276;6.472;2023-04-25T07:15:45;12.60;99.30
4811;DHT22;2419;51.276;6.472;2023-04-25T07:18:16;13.10;98.80
4811;DHT22;2419;51.276;6.472;2023-04-25T07:20:44;13.00;98.00
4811;DHT22;2419;51.276;6.472;2023-04-25T07:23:14;13.40;97.70
4811;DHT22;2419;51.276;6.472;2023-04-25T07:25:42;12.60;98.60
4811;DHT22;2419;51.276;6.472;2023-04-25T07:28:11;12.20;99.30
4811;DHT22;2419;51.276;6.472;2023-04-25T07:30:39;11.50;99.90
4811;DHT22;2419;51.276;6.472;2023-04-25T07:33:07;10.80;99.90
4811;DHT22;2419;51.276;6.472;2023-04-25T07:35:35;10.40;99.90
4811;DHT22;2419;51.276;6.472;2023-04-25T07:38:03;10.30;99.90
4811;DHT22;2419;51.276;6.472;2023-04-25T07:40:34;10.30;99.90
4811;DHT22;2419;51.276;6.472;2023-04-25T07:43:06;10.30;99.90
4811;DHT22;2419;51.276;6.472;2023-04-25T07:45:41;10.60;99.90
4811;DHT22;2419;51.276;6.472;2023-04-25T07:48:09;11.00;99.90
4811;DHT22;2419;51.276;6.472;2023-04-25T07:50:39;11.30;99.90
4811;DHT22;2419;51.276;6.472;2023-04-25T07:53:08;11.20;99.90
4811;DHT22;2419;51.276;6.472;2023-04-25T07:55:45;11.40;99.90
4811;DHT22;2419;51.276;6.472;2023-04-25T07:58:15;11.50;99.90
4811;DHT22;2419;51.276;6.472;2023-04-25T08:00:50;11.70;99.50
4811;DHT22;2419;51.276;6.472;2023-04-25T08:03:48;11.90;99.90
4811;DHT22;2419;51.276;6.472;2023-04-25T08:06:40;11.20;99.90
4811;DHT22;2419;51.276;6.472;2023-04-25T08:09:14;11.10;99.90
4811;DHT22;2419;51.276;6.472;2023-04-25T08:11:43;11.30;99.90
4811;DHT22;2419;51.276;6.472;2023-04-25T08:14:14;11.90;99.40
4811;DHT22;2419;51.276;6.472;2023-04-25T08:16:44;11.70;99.60
4811;DHT22;2419;51.276;6.472;2023-04-25T08:19:12;11.20;99.00
4811;DHT22;2419;51.276;6.472;2023-04-25T08:21:40;10.80;99.40
4811;DHT22;2419;51.276;6.472;2023-04-25T08:24:13;10.80;99.90
4811;DHT22;2419;51.276;6.472;2023-04-25T08:26:44;10.90;99.90
4811;DHT22;2419;51.276;6.472;2023-04-25T08:29:15;10.80;99.90
4811;DHT22;2419;51.276;6.472;2023-04-25T08:31:43;10.80;99.90
4811;DHT22;2419;51.276;6.472;2023-04-25T08:34:13;10.70;99.90
4811;DHT22;2419;51.276;6.472;2023-04-25T08:36:44;10.60;99.90
4811;DHT22;2419;51.276;6.472;2023-04-25T08:39:32;10.30;99.90
4811;DHT22;2419;51.276;6.472;2023-04-25T08:42:27;10.20;99.90
4811;DHT22;2419;51.276;6.472;2023-04-25T08:44:55;10.30;99.90
4811;DHT22;2419;51.276;6.472;2023-04-25T08:47:30;10.60;99.90
4811;DHT22;2419;51.276;6.472;2023-04-25T08:50:03;10.80;99.90
4811;DHT22;2419;51.276;6.472;2023-04-25T08:52:37;11.30;99.90
4811;DHT22;2419;51.276;6.472;2023-04-25T08:55:09;11.40;99.90
4811;DHT22;2419;51.276;6.472;2023-04-25T08:57:40;11.80;99.10
4811;DHT22;2419;51.276;6.472;2023-04-25T09:00:11;12.70;98.00
4811;DHT22;2419;51.276;6.472;2023-04-25T09:02:43;13.00;97.30
4811;DHT22;2419;51.276;6.472;2023-04-25T09:05:13;13.60;96.20
4811;DHT22;2419;51.276;6.472;2023-04-25T09:07:43;13.60;95.20
4811;DHT22;2419;51.276;6.472;2023-04-25T09:10:11;13.20;95.20
4811;DHT22;2419;51.276;6.472;2023-04-25T09:12:40;12.50;94.90
4811;DHT22;2419;51.276;6.472;2023-04-25T09:15:10;11.80;96.20
4811;DHT22;2419;51.276;6.472;2023-04-25T09:18:04;11.20;96.60
4811;DHT22;2419;51.276;6.472;2023-04-25T09:20:41;11.30;97.70
4811;DHT22;2419;51.276;6.472;2023-04-25T09:23:30;11.10;98.00
4811;DHT22;2419;51.276;6.472;2023-04-25T09:25:59;10.80;97.00
4811;DHT22;2419;51.276;6.472;2023-04-25T09:28:29;10.80;98.00
4811;DHT22;2419;51.276;6.472;2023-04-25T09:30:59;10.80;97.40
4811;DHT22;2419;51.276;6.472;2023-04-25T09:33:36;11.20;96.50
4811;DHT22;2419;51.276;6.472;2023-04-25T09:36:07;11.70;95.70
4811;DHT22;2419;51.276;6.472;2023-04-25T09:38:59;12.40;95.90
4811;DHT22;2419;51.276;6.472;2023-04-25T09:41:37;12.90;94.20
4811;DHT22;2419;51.276;6.472;2023-04-25T09:44:07;12.60;93.70
4811;DHT22;2419;51.276;6.472;2023-04-25T09:46:36;12.10;94.10
4811;DHT22;2419;51.276;6.472;2023-04-25T09:49:20;11.90;94.70
4811;DHT22;2419;51.276;6.472;2023-04-25T09:52:16;11.80;94.30
4811;DHT22;2419;51.276;6.472;2023-04-25T09:54:55;11.70;94.30
4811;DHT22;2419;51.276;6.472;2023-04-25T09:57:29;12.10;93.80
4811;DHT22;2419;51.276;6.472;2023-04-25T10:00:00;11.70;94.10
4811;DHT22;2419;51.276;6.472;2023-04-25T10:02:42;11.60;95.10
4811;DHT22;2419;51.276;6.472;2023-04-25T10:05:21;11.50;95.20
4811;DHT22;2419;51.276;6.472;2023-04-25T10:07:49;11.30;95.70
4811;DHT22;2419;51.276;6.472;2023-04-25T10:10:17;11.40;95.80
4811;DHT22;2419;51.276;6.472;2023-04-25T10:12:46;11.40;95.40
4811;DHT22;2419;51.276;6.472;2023-04-25T10:15:16;11.50;95.10
4811;DHT22;2419;51.276;6.472;2023-04-25T10:17:45;11.20;95.20
4811;DHT22;2419;51.276;6.472;2023-04-25T10:20:13;11.30;95.70
4811;DHT22;2419;51.276;6.472;2023-04-25T10:22:43;11.20;95.70
4811;DHT22;2419;51.276;6.472;2023-04-25T10:25:13;11.40;96.70
4811;DHT22;2419;51.276;6.472;2023-04-25T10:27:41;11.90;95.90
4811;DHT22;2419;51.276;6.472;2023-04-25T10:30:13;12.30;95.90
4811;DHT22;2419;51.276;6.472;2023-04-25T10:32:44;13.00;95.00
4811;DHT22;2419;51.276;6.472;2023-04-25T10:35:15;13.40;93.50
4811;DHT22;2419;51.276;6.472;2023-04-25T10:38:03;13.70;93.30
4811;DHT22;2419;51.276;6.472;2023-04-25T10:40:32;13.50;91.70
4811;DHT22;2419;51.276;6.472;2023-04-25T10:43:35;14.20;90.10
4811;DHT22;2419;51.276;6.472;2023-04-25T10:46:13;14.20;86.50
4811;DHT22;2419;51.276;6.472;2023-04-25T10:48:46;14.30;85.80
4811;DHT22;2419;51.276;6.472;2023-04-25T10:51:20;15.40;81.30
4811;DHT22;2419;51.276;6.472;2023-04-25T10:54:00;15.90;79.40
4811;DHT22;2419;51.276;6.472;2023-04-25T10:56:29;17.00;77.80
4811;DHT22;2419;51.276;6.472;2023-04-25T10:59:05;16.90;70.90
4811;DHT22;2419;51.276;6.472;2023-04-25T11:01:38;17.80;69.80
4811;DHT22;2419;51.276;6.472;2023-04-25T11:04:19;18.30;69.90
4811;DHT22;2419;51.276;6.472;2023-04-25T11:06:59;18.20;65.50
4811;DHT22;2419;51.276;6.472;2023-04-25T11:09:33;16.80;67.60
4811;DHT22;2419;51.276;6.472;2023-04-25T11:12:01;15.60;68.60
4811;DHT22;2419;51.276;6.472;2023-04-25T11:14:29;15.50;71.90
4811;DHT22;2419;51.276;6.472;2023-04-25T11:16:58;14.60;71.40
4811;DHT22;2419;51.276;6.472;2023-04-25T11:19:28;13.60;75.00
4811;DHT22;2419;51.276;6.472;2023-04-25T11:21:57;12.80;78.70
4811;DHT22;2419;51.276;6.472;2023-04-25T11:24:27;12.30;83.00
4811;DHT22;2419;51.276;6.472;2023-04-25T11:26:55;12.00;83.10
4811;DHT22;2419;51.276;6.472;2023-04-25T11:29:23;11.80;85.30
4811;DHT22;2419;51.276;6.472;2023-04-25T11:31:51;11.60;87.30
4811;DHT22;2419;51.276;6.472;2023-04-25T11:34:20;11.40;88.80
4811;DHT22;2419;51.276;6.472;2023-04-25T11:36:50;11.40;90.90
4811;DHT22;2419;51.276;6.472;2023-04-25T11:39:19;11.50;90.70
4811;DHT22;2419;51.276;6.472;2023-04-25T11:41:47;11.70;89.20
4811;DHT22;2419;51.276;6.472;2023-04-25T11:44:16;11.80;90.80
4811;DHT22;2419;51.276;6.472;2023-04-25T11:46:45;11.80;91.10
4811;DHT22;2419;51.276;6.472;2023-04-25T11:49:13;11.70;91.50
4811;DHT22;2419;51.276;6.472;2023-04-25T11:51:43;11.80;92.10
4811;DHT22;2419;51.276;6.472;2023-04-25T11:54:13;11.60;91.90
4811;DHT22;2419;51.276;6.472;2023-04-25T11:56:42;11.20;92.10
4811;DHT22;2419;51.276;6.472;2023-04-25T11:59:10;11.30;92.80
4811;DHT22;2419;51.276;6.472;2023-04-25T12:01:40;11.40;93.70
4811;DHT22;2419;51.276;6.472;2023-04-25T12:04:12;11.10;93.20
4811;DHT22;2419;51.276;6.472;2023-04-25T12:06:43;11.40;92.10
4811;DHT22;2419;51.276;6.472;2023-04-25T12:09:15;11.80;91.70
4811;DHT22;2419;51.276;6.472;2023-04-25T12:11:45;12.30;90.90
4811;DHT22;2419;51.276;6.472;2023-04-25T12:14:21;12.50;87.50
4811;DHT22;2419;51.276;6.472;2023-04-25T12:16:50;13.30;84.20
4811;DHT22;2419;51.276;6.472;2023-04-25T12:19:21;14.90;82.90
4811;DHT22;2419;51.276;6.472;2023-04-25T12:21:51;15.30;75.00
4811;DHT22;2419;51.276;6.472;2023-04-25T12:24:27;15.20;69.20
4811;DHT22;2419;51.276;6.472;2023-04-25T12:26:59;15.60;70.70
4811;DHT22;2419;51.276;6.472;2023-04-25T12:29:31;16.40;67.80
4811;DHT22;2419;51.276;6.472;2023-04-25T12:32:13;16.60;65.80
4811;DHT22;2419;51.276;6.472;2023-04-25T12:34:42;16.00;63.60
4811;DHT22;2419;51.276;6.472;2023-04-25T12:37:11;16.60;65.60
4811;DHT22;2419;51.276;6.472;2023-04-25T12:39:43;15.90;63.70
4811;DHT22;2419;51.276;6.472;2023-04-25T12:42:15;14.80;68.10
4811;DHT22;2419;51.276;6.472;2023-04-25T12:44:59;13.80;71.20
4811;DHT22;2419;51.276;6.472;2023-04-25T12:47:28;13.20;76.90
4811;DHT22;2419;51.276;6.472;2023-04-25T12:49:56;12.70;75.20
4811;DHT22;2419;51.276;6.472;2023-04-25T12:52:24;12.30;75.90
4811;DHT22;2419;51.276;6.472;2023-04-25T12:54:54;12.00;71.90
4811;DHT22;2419;51.276;6.472;2023-04-25T12:57:22;11.90;70.20
4811;DHT22;2419;51.276;6.472;2023-04-25T12:59:50;12.00;70.40
4811;DHT22;2419;51.276;6.472;2023-04-25T13:02:18;12.00;70.70
4811;DHT22;2419;51.276;6.472;2023-04-25T13:04:47;11.70;71.70
4811;DHT22;2419;51.276;6.472;2023-04-25T13:07:15;11.60;73.70
4811;DHT22;2419;51.276;6.472;2023-04-25T13:09:43;11.40;73.00
4811;DHT22;2419;51.276;6.472;2023-04-25T13:12:12;11.50;74.80
4811;DHT22;2419;51.276;6.472;2023-04-25T13:14:40;11.50;76.00
4811;DHT22;2419;51.276;6.472;2023-04-25T13:17:08;11.50;75.70
4811;DHT22;2419;51.276;6.472;2023-04-25T13:19:37;11.40;77.40
4811;DHT22;2419;51.276;6.472;2023-04-25T13:22:05;11.50;81.40
4811;DHT22;2419;51.276;6.472;2023-04-25T13:24:33;11.70;81.50
4811;DHT22;2419;51.276;6.472;2023-04-25T13:27:01;11.50;82.70
4811;DHT22;2419;51.276;6.472;2023-04-25T13:29:33;11.80;82.90
4811;DHT22;2419;51.276;6.472;2023-04-25T13:32:02;11.90;82.80
4811;DHT22;2419;51.276;6.472;2023-04-25T13:34:30;11.90;85.00
4811;DHT22;2419;51.276;6.472;2023-04-25T13:36:58;12.20;83.80
4811;DHT22;2419;51.276;6.472;2023-04-25T13:39:27;12.00;85.30
4811;DHT22;2419;51.276;6.472;2023-04-25T13:41:55;11.80;85.40
4811;DHT22;2419;51.276;6.472;2023-04-25T13:44:23;12.00;87.20
4811;DHT22;2419;51.276;6.472;2023-04-25T13:46:52;12.10;87.90
4811;DHT22;2419;51.276;6.472;2023-04-25T13:49:20;12.00;88.40
4811;DHT22;2419;51.276;6.472;2023-04-25T13:51:49;12.20;88.40
4811;DHT22;2419;51.276;6.472;2023-04-25T13:54:17;12.10;89.30
4811;DHT22;2419;51.276;6.472;2023-04-25T13:56:45;12.70;88.20
4811;DHT22;2419;51.276;6.472;2023-04-25T13:59:13;13.00;88.90
4811;DHT22;2419;51.276;6.472;2023-04-25T14:01:41;13.20;89.50
4811;DHT22;2419;51.276;6.472;2023-04-25T14:04:10;12.70;88.70
4811;DHT22;2419;51.276;6.472;2023-04-25T14:06:39;12.80;89.80
4811;DHT22;2419;51.276;6.472;2023-04-25T14:09:08;12.60;91.50
4811;DHT22;2419;51.276;6.472;2023-04-25T14:11:37;12.60;90.40
4811;DHT22;2419;51.276;6.472;2023-04-25T14:14:04;12.90;90.00
4811;DHT22;2419;51.276;6.472;2023-04-25T14:16:33;13.20;87.10
4811;DHT22;2419;51.276;6.472;2023-04-25T14:19:01;12.70;82.50
4811;DHT22;2419;51.276;6.472;2023-04-25T14:21:31;12.50;83.40
4811;DHT22;2419;51.276;6.472;2023-04-25T14:24:00;12.20;83.30
4811;DHT22;2419;51.276;6.472;2023-04-25T14:26:28;11.90;85.10
4811;DHT22;2419;51.276;6.472;2023-04-25T14:28:56;11.80;85.90
4811;DHT22;2419;51.276;6.472;2023-04-25T14:31:24;11.60;86.10
4811;DHT22;2419;51.276;6.472;2023-04-25T14:33:53;11.50;88.20
4811;DHT22;2419;51.276;6.472;2023-04-25T14:36:24;11.40;87.70
4811;DHT22;2419;51.276;6.472;2023-04-25T14:38:54;11.40;88.20
4811;DHT22;2419;51.276;6.472;2023-04-25T14:41:22;11.50;86.80
4811;DHT22;2419;51.276;6.472;2023-04-25T14:43:50;11.90;85.50
4811;DHT22;2419;51.276;6.472;2023-04-25T14:46:19;12.40;85.10
4811;DHT22;2419;51.276;6.472;2023-04-25T14:48:49;12.00;83.30
4811;DHT22;2419;51.276;6.472;2023-04-25T14:51:19;12.10;81.60
4811;DHT22;2419;51.276;6.472;2023-04-25T14:53:47;12.40;83.50
4811;DHT22;2419;51.276;6.472;2023-04-25T14:56:17;12.70;77.50
4811;DHT22;2419;51.276;6.472;2023-04-25T14:58:45;12.60;78.80
4811;DHT22;2419;51.276;6.472;2023-04-25T15:01:14;12.50;82.60
4811;DHT22;2419;51.276;6.472;2023-04-25T15:03:42;12.40;84.80
4811;DHT22;2419;51.276;6.472;2023-04-25T15:06:10;12.20;87.10
4811;DHT22;2419;51.276;6.472;2023-04-25T15:08:38;12.20;87.50
4811;DHT22;2419;51.276;6.472;2023-04-25T15:11:09;12.30;87.50
4811;DHT22;2419;51.276;6.472;2023-04-25T15:13:40;12.50;87.70
4811;DHT22;2419;51.276;6.472;2023-04-25T15:16:07;12.40;86.10
4811;DHT22;2419;51.276;6.472;2023-04-25T15:18:36;12.60;83.90
4811;DHT22;2419;51.276;6.472;2023-04-25T15:21:05;12.60;82.50
4811;DHT22;2419;51.276;6.472;2023-04-25T15:23:34;12.60;82.80
4811;DHT22;2419;51.276;6.472;2023-04-25T15:26:02;12.60;82.30
4811;DHT22;2419;51.276;6.472;2023-04-25T15:28:29;12.60;81.30
4811;DHT22;2419;51.276;6.472;2023-04-25T15:30:59;12.60;80.30
4811;DHT22;2419;51.276;6.472;2023-04-25T15:33:27;12.80;79.50
4811;DHT22;2419;51.276;6.472;2023-04-25T15:35:55;12.70;79.90
4811;DHT22;2419;51.276;6.472;2023-04-25T15:38:24;12.80;78.20
4811;DHT22;2419;51.276;6.472;2023-04-25T15:40:52;12.80;79.70
4811;DHT22;2419;51.276;6.472;2023-04-25T15:43:20;12.40;77.70
4811;DHT22;2419;51.276;6.472;2023-04-25T15:45:48;12.30;79.90
4811;DHT22;2419;51.276;6.472;2023-04-25T15:48:18;12.10;79.50
4811;DHT22;2419;51.276;6.472;2023-04-25T15:50:46;11.80;81.20
4811;DHT22;2419;51.276;6.472;2023-04-25T15:53:14;11.70;82.20
4811;DHT22;2419;51.276;6.472;2023-04-25T15:55:45;11.70;83.90
4811;DHT22;2419;51.276;6.472;2023-04-25T15:58:13;11.80;83.90
4811;DHT22;2419;51.276;6.472;2023-04-25T16:00:43;11.70;84.70
4811;DHT22;2419;51.276;6.472;2023-04-25T16:03:15;11.40;86.00
4811;DHT22;2419;51.276;6.472;2023-04-25T16:05:50;11.20;86.80
4811;DHT22;2419;51.276;6.472;2023-04-25T16:08:19;11.00;87.50
4811;DHT22;2419;51.276;6.472;2023-04-25T16:10:48;11.10;88.00
4811;DHT22;2419;51.276;6.472;2023-04-25T16:13:17;11.40;87.60
4811;DHT22;2419;51.276;6.472;2023-04-25T16:15:45;11.60;86.70
4811;DHT22;2419;51.276;6.472;2023-04-25T16:18:14;11.70;84.80
4811;DHT22;2419;51.276;6.472;2023-04-25T16:20:43;11.80;84.40
4811;DHT22;2419;51.276;6.472;2023-04-25T16:23:13;11.80;83.60
4811;DHT22;2419;51.276;6.472;2023-04-25T16:25:41;11.80;85.00
4811;DHT22;2419;51.276;6.472;2023-04-25T16:28:10;11.60;79.10
4811;DHT22;2419;51.276;6.472;2023-04-25T16:30:38;11.60;79.20
4811;DHT22;2419;51.276;6.472;2023-04-25T16:33:06;11.50;79.10
4811;DHT22;2419;51.276;6.472;2023-04-25T16:35:34;11.50;80.90